Time;durP1;ratioP1;P1;durP2;ratioP2;P2;SDS_P1;SDS_P2;PMS_P1;PMS_P2;Temp;Humidity;BMP_temperature;BMP_pressure;BME280_temperature;BME280_humidity;BME280_pressure;Samples;Min_cycle;Max_cycle;Signal;HPM_P1;HPM_P2
2021/08/20 00:01:47;;;;;;;7.85;7.15;;;;;;;24.08;48.19;99527.31;5112687;28;20023;-75
2021/08/20 00:04:12;;;;;;;7.97;7.18;;;;;;;24.03;48.18;99525.41;5112410;28;20020;-74
2021/08/20 00:06:38;;;;;;;7.97;6.93;;;;;;;23.79;48.52;99488.41;5112424;28;20094;-76
2021/08/20 00:09:03;;;;;;;9.60;6.90;;;;;;;23.67;48.53;99485.91;5111998;28;20111;-75
2021/08/20 00:11:30;;;;;;;8.82;7.35;;;;;;;23.83;48.61;99522.66;5112406;28;20013;-76
2021/08/20 00:13:55;;;;;;;8.05;7.22;;;;;;;23.70;48.65;99513.16;5112242;28;20106;-75
2021/08/20 00:16:20;;;;;;;8.38;7.22;;;;;;;23.73;48.38;99517.22;5112256;28;20102;-76
2021/08/20 00:18:46;;;;;;;7.55;6.57;;;;;;;23.67;48.54;99529.03;5112151;28;20465;-76
2021/08/20 00:21:11;;;;;;;6.80;6.20;;;;;;;23.33;48.40;99477.41;5112244;28;20026;-75
2021/08/20 00:23:37;;;;;;;7.63;6.82;;;;;;;23.45;48.42;99503.06;5112295;28;20023;-75
2021/08/20 00:26:03;;;;;;;8.45;6.50;;;;;;;23.56;48.46;99520.13;5111830;28;20106;-76
2021/08/20 00:28:28;;;;;;;7.90;7.10;;;;;;;23.63;48.51;99531.47;5093712;28;20104;-75
2021/08/20 00:30:54;;;;;;;7.63;6.60;;;;;;;23.60;48.34;99531.19;5093632;28;20136;-76
2021/08/20 00:33:19;;;;;;;7.10;6.50;;;;;;;23.55;48.48;99512.28;5111696;28;20027;-75
2021/08/20 00:35:45;;;;;;;8.07;6.97;;;;;;;23.61;48.43;99538.19;5093908;28;20023;-75
2021/08/20 00:38:10;;;;;;;8.63;6.75;;;;;;;23.29;48.61;99485.22;5111874;28;20032;-75
2021/08/20 00:40:37;;;;;;;6.80;6.18;;;;;;;23.56;48.49;99532.78;5111762;28;20110;-75
2021/08/20 00:43:02;;;;;;;7.78;7.07;;;;;;;23.22;48.59;99491.91;5111734;28;20027;-75
2021/08/20 00:45:28;;;;;;;7.88;6.68;;;;;;;23.42;48.81;99535.13;5093344;28;20110;-75
2021/08/20 00:47:53;;;;;;;7.40;6.70;;;;;;;22.83;48.89;99455.31;5111625;28;20012;-76
2021/08/20 00:50:19;;;;;;;7.82;7.13;;;;;;;22.93;49.03;99478.00;5111891;28;20038;-75
2021/08/20 00:52:44;;;;;;;7.25;6.55;;;;;;;22.93;49.22;99488.75;5111724;28;20103;-75
2021/08/20 00:55:13;;;;;;;8.20;6.75;;;;;;;23.12;49.47;99539.25;5111847;28;20095;-76
2021/08/20 00:57:39;;;;;;;9.07;6.72;;;;;;;23.05;49.68;99532.50;5111643;28;20496;-75
2021/08/20 01:00:05;;;;;;;9.52;6.35;;;;;;;22.91;49.69;99515.13;5111782;28;20058;-76
2021/08/20 01:02:30;;;;;;;7.35;6.60;;;;;;;22.72;49.72;99504.75;5111380;28;20492;-75
2021/08/20 01:04:55;;;;;;;8.07;6.47;;;;;;;23.01;49.83;99537.53;5111629;28;20076;-76
2021/08/20 01:07:21;;;;;;;7.22;6.53;;;;;;;22.58;49.68;99482.03;5111592;28;20424;-75
2021/08/20 01:09:47;;;;;;;8.10;7.40;;;;;;;22.84;49.92;99507.28;5112032;28;20016;-75
2021/08/20 01:12:13;;;;;;;8.23;6.72;;;;;;;22.97;49.84;99528.38;5111501;28;20030;-75
2021/08/20 01:14:39;;;;;;;8.25;7.45;;;;;;;23.00;49.87;99537.81;5111692;28;20023;-75
2021/08/20 01:17:06;;;;;;;7.82;6.88;;;;;;;23.01;49.74;99531.34;5111367;28;20055;-75
2021/08/20 01:19:33;;;;;;;8.63;7.45;;;;;;;22.99;49.84;99530.81;5111762;28;20534;-74
2021/08/20 01:21:59;;;;;;;8.13;7.25;;;;;;;22.56;49.79;99462.66;5115283;28;20031;-75
2021/08/20 01:24:27;;;;;;;7.95;7.22;;;;;;;22.94;49.81;99512.72;5115616;28;20023;-75
2021/08/20 01:26:53;;;;;;;7.93;7.13;;;;;;;22.97;49.69;99517.59;5097252;28;20617;-75
2021/08/20 01:29:19;;;;;;;8.15;7.45;;;;;;;23.00;49.63;99525.16;5115468;28;20031;-75
2021/08/20 01:31:45;;;;;;;8.02;6.70;;;;;;;22.69;49.76;99478.34;5115292;28;20015;-75
2021/08/20 01:34:12;;;;;;;10.20;6.72;;;;;;;22.93;49.79;99523.75;5115447;28;20038;-75
2021/08/20 01:36:38;;;;;;;8.10;7.10;;;;;;;22.57;49.88;99496.56;5115125;28;20031;-76
2021/08/20 01:39:04;;;;;;;7.90;7.15;;;;;;;22.81;49.87;99532.84;5115391;28;20440;-75
2021/08/20 01:41:30;;;;;;;8.10;7.13;;;;;;;22.80;50.09;99533.09;5115233;28;20032;-74
2021/08/20 01:43:58;;;;;;;8.02;7.22;;;;;;;22.69;50.11;99524.09;5096978;28;20030;-76
2021/08/20 01:46:23;;;;;;;8.40;7.38;;;;;;;22.79;50.11;99526.06;5115159;28;20016;-75
2021/08/20 01:48:53;;;;;;;8.35;7.03;;;;;;;22.45;49.92;99471.72;5096782;28;20018;-75
2021/08/20 01:51:28;;;;;;;7.05;6.45;;;;;;;22.65;50.08;99506.03;5115185;28;20039;-76
2021/08/20 01:53:56;;;;;;;7.65;6.95;;;;;;;22.88;49.80;99531.81;5114992;28;20027;-75
2021/08/20 01:56:23;;;;;;;7.70;6.90;;;;;;;22.63;49.66;99508.16;5115162;28;20043;-75
2021/08/20 01:58:50;;;;;;;7.75;6.70;;;;;;;22.88;49.80;99534.50;5114749;28;20504;-75
2021/08/20 02:01:15;;;;;;;8.15;7.05;;;;;;;22.73;49.67;99522.53;5114560;28;20484;-74
2021/08/20 02:03:41;;;;;;;8.27;7.38;;;;;;;22.63;49.75;99497.41;5114469;28;20018;-75
2021/08/20 02:06:07;;;;;;;9.23;6.82;;;;;;;22.65;49.64;99503.34;5114718;28;20030;-75
2021/08/20 02:08:32;;;;;;;8.57;7.10;;;;;;;22.90;49.58;99543.94;5114682;28;20011;-75
2021/08/20 02:10:58;;;;;;;10.10;6.70;;;;;;;22.80;49.38;99519.63;5114471;28;20027;-75
2021/08/20 02:13:23;;;;;;;7.72;6.47;;;;;;;22.75;49.44;99511.50;5114485;28;20098;-76
2021/08/20 02:15:49;;;;;;;8.02;6.82;;;;;;;22.82;49.32;99522.88;5114356;28;20470;-75
2021/08/20 02:18:16;;;;;;;10.25;6.80;;;;;;;22.55;49.29;99479.84;5114298;28;20108;-76
2021/08/20 02:20:41;;;;;;;9.15;6.78;;;;;;;22.85;49.27;99525.06;5114588;28;20023;-75
2021/08/20 02:23:08;;;;;;;7.65;6.65;;;;;;;22.87;49.18;99543.66;5114723;28;20069;-75
2021/08/20 02:25:33;;;;;;;9.88;6.97;;;;;;;22.79;49.22;99534.13;5114440;28;20045;-75
2021/08/20 02:27:59;;;;;;;7.35;6.47;;;;;;;22.82;49.47;99550.63;5114292;28;20484;-75
2021/08/20 02:30:25;;;;;;;8.43;6.35;;;;;;;22.83;49.07;99549.53;5114390;28;20019;-75
2021/08/20 02:32:50;;;;;;;8.65;6.68;;;;;;;22.79;48.99;99540.31;5114000;28;20121;-75
2021/08/20 02:35:16;;;;;;;7.50;6.78;;;;;;;22.78;49.16;99549.47;5114164;28;20012;-75
2021/08/20 02:37:41;;;;;;;8.45;6.72;;;;;;;22.75;49.26;99547.28;5113849;28;20020;-75
2021/08/20 02:40:07;;;;;;;9.88;6.65;;;;;;;22.69;49.29;99542.13;5095627;28;20149;-75
2021/08/20 02:42:33;;;;;;;10.38;6.93;;;;;;;22.56;49.41;99532.59;5114004;28;20027;-75
2021/08/20 02:44:58;;;;;;;9.90;7.40;;;;;;;22.35;49.44;99498.53;5113939;28;20027;-75
2021/08/20 02:47:23;;;;;;;8.77;6.95;;;;;;;22.46;49.39;99524.44;5113849;28;20381;-75
2021/08/20 02:49:49;;;;;;;8.27;7.15;;;;;;;22.28;49.41;99497.91;5095739;28;20031;-75
2021/08/20 02:52:14;;;;;;;8.15;7.18;;;;;;;22.24;49.61;99484.16;5113889;28;20495;-76
2021/08/20 02:54:40;;;;;;;8.00;7.20;;;;;;;22.50;49.53;99530.94;5113975;28;20385;-75
2021/08/20 02:57:05;;;;;;;7.45;6.70;;;;;;;22.62;49.58;99546.91;5113623;28;20016;-75
2021/08/20 02:59:31;;;;;;;7.35;6.50;;;;;;;22.59;49.55;99542.84;5113699;28;20020;-75
2021/08/20 03:01:58;;;;;;;7.32;6.05;;;;;;;22.22;49.63;99491.66;5113748;28;20026;-75
2021/08/20 03:04:24;;;;;;;8.35;6.07;;;;;;;22.61;49.31;99551.50;5113663;28;20026;-75
2021/08/20 03:06:49;;;;;;;7.18;6.35;;;;;;;22.62;49.24;99544.22;5113770;28;20019;-75
2021/08/20 03:09:15;;;;;;;7.30;5.95;;;;;;;22.46;49.46;99533.34;5113600;28;20020;-76
2021/08/20 03:11:41;;;;;;;7.15;6.45;;;;;;;22.51;49.38;99546.03;5113482;28;20019;-75
2021/08/20 03:14:06;;;;;;;8.25;6.57;;;;;;;22.42;49.26;99537.59;5113523;28;20106;-75
2021/08/20 03:16:32;;;;;;;9.10;6.25;;;;;;;22.09;49.47;99495.59;5095024;28;20019;-74
2021/08/20 03:18:57;;;;;;;8.68;6.85;;;;;;;22.51;49.38;99557.59;5113511;28;20023;-75
2021/08/20 03:21:22;;;;;;;9.38;6.88;;;;;;;22.47;49.49;99564.56;5113258;28;20035;-75
2021/08/20 03:23:48;;;;;;;11.18;6.35;;;;;;;22.46;49.59;99571.00;5113170;28;20490;-75
2021/08/20 03:26:13;;;;;;;8.77;7.07;;;;;;;22.46;49.48;99575.56;5113133;28;20023;-75
2021/08/20 03:28:39;;;;;;;9.85;6.65;;;;;;;22.45;49.58;99568.56;5113302;28;20019;-75
2021/08/20 03:31:04;;;;;;;7.80;6.57;;;;;;;22.47;49.68;99574.50;5113032;28;20412;-75
2021/08/20 03:33:29;;;;;;;10.00;7.47;;;;;;;22.27;49.76;99561.66;5113015;28;20039;-74
2021/08/20 03:35:55;;;;;;;10.07;6.43;;;;;;;22.43;49.54;99578.78;5113218;28;20022;-75
2021/08/20 03:38:20;;;;;;;7.38;6.70;;;;;;;22.40;49.87;99580.09;5094717;28;20019;-75
2021/08/20 03:40:48;;;;;;;12.43;7.03;;;;;;;22.20;49.63;99558.34;5112941;28;20098;-76
2021/08/20 03:43:14;;;;;;;6.78;6.10;;;;;;;22.22;49.66;99564.28;5112012;28;20095;-75
2021/08/20 03:45:40;;;;;;;9.27;6.72;;;;;;;22.34;49.48;99608.00;5112798;28;20023;-74
2021/08/20 03:48:05;;;;;;;9.73;6.50;;;;;;;22.27;49.76;99593.09;5112844;28;20020;-75
2021/08/20 03:50:30;;;;;;;7.47;6.53;;;;;;;22.30;49.78;99593.44;5112790;28;20020;-75
2021/08/20 03:52:56;;;;;;;8.45;6.60;;;;;;;21.94;49.84;99541.09;5112624;28;20015;-76
2021/08/20 03:55:21;;;;;;;9.23;6.70;;;;;;;22.26;49.79;99594.16;5112557;28;20106;-75
2021/08/20 03:57:49;;;;;;;9.82;7.05;;;;;;;22.22;49.73;99591.19;5094194;28;20119;-75
2021/08/20 04:00:15;;;;;;;9.15;6.78;;;;;;;22.21;49.83;99600.31;5112474;28;20030;-75
2021/08/20 04:02:41;;;;;;;8.60;7.03;;;;;;;22.16;49.86;99598.38;5112645;28;20032;-75
2021/08/20 04:05:06;;;;;;;7.50;6.57;;;;;;;21.87;49.88;99567.38;5112650;28;20031;-75
2021/08/20 04:07:32;;;;;;;9.73;6.55;;;;;;;22.10;50.06;99602.06;5112562;28;20020;-76
2021/08/20 04:09:57;;;;;;;8.05;6.70;;;;;;;21.70;49.94;99545.94;5093968;28;20027;-76
2021/08/20 04:12:22;;;;;;;10.10;7.13;;;;;;;22.08;50.17;99611.47;5112353;28;20407;-75
2021/08/20 04:14:48;;;;;;;7.43;6.55;;;;;;;22.07;50.14;99610.66;5112211;28;20564;-75
2021/08/20 04:17:13;;;;;;;11.43;6.85;;;;;;;21.59;49.96;99525.38;5112053;28;20115;-75
2021/08/20 04:19:39;;;;;;;7.90;7.13;;;;;;;22.11;49.90;99621.72;5112367;28;20020;-75
2021/08/20 04:22:04;;;;;;;8.15;7.05;;;;;;;21.67;49.96;99554.50;5112172;28;20015;-75
2021/08/20 04:24:29;;;;;;;11.00;6.78;;;;;;;21.75;50.02;99580.94;5112332;28;20404;-75
2021/08/20 04:26:55;;;;;;;10.52;6.75;;;;;;;21.81;50.16;99582.63;5111613;28;20031;-75
2021/08/20 04:29:20;;;;;;;9.40;7.07;;;;;;;22.10;50.02;99622.78;5111749;28;20023;-75
2021/08/20 04:31:45;;;;;;;13.60;6.82;;;;;;;22.08;50.03;99601.50;5112133;28;20488;-75
2021/08/20 04:34:11;;;;;;;9.75;7.28;;;;;;;21.81;49.87;99573.75;5112212;28;20023;-75
2021/08/20 04:36:36;;;;;;;9.90;6.90;;;;;;;22.20;49.91;99617.50;5112165;28;20030;-75
2021/08/20 04:39:03;;;;;;;11.23;7.35;;;;;;;21.78;50.04;99553.56;5112066;28;20193;-75
2021/08/20 04:41:29;;;;;;;9.35;6.50;;;;;;;21.87;50.07;99575.44;5111748;28;20511;-75
2021/08/20 04:43:56;;;;;;;10.40;7.10;;;;;;;22.16;50.03;99608.31;5093396;28;20015;-75
2021/08/20 04:46:22;;;;;;;10.85;7.72;;;;;;;22.26;49.99;99629.13;5093420;28;20047;-74
2021/08/20 04:48:48;;;;;;;10.80;7.25;;;;;;;22.26;50.01;99623.75;5111706;28;20408;-74
2021/08/20 04:51:13;;;;;;;9.35;7.05;;;;;;;22.12;50.01;99597.25;5111728;28;20019;-74
2021/08/20 04:53:39;;;;;;;9.15;6.63;;;;;;;21.89;49.82;99557.16;5111582;28;20019;-74
2021/08/20 04:56:05;;;;;;;10.80;7.22;;;;;;;22.07;49.84;99589.13;5111722;28;20019;-73
2021/08/20 04:58:30;;;;;;;12.35;6.88;;;;;;;21.86;50.07;99547.75;5111802;28;20030;-75
2021/08/20 05:00:56;;;;;;;8.15;7.05;;;;;;;22.42;49.85;99628.25;5111605;28;20028;-73
2021/08/20 05:03:22;;;;;;;10.00;6.47;;;;;;;22.17;49.82;99585.75;5111377;28;20102;-73
2021/08/20 05:05:48;;;;;;;9.63;6.30;;;;;;;22.49;49.87;99631.56;5111700;28;20107;-76
2021/08/20 05:08:14;;;;;;;7.45;6.03;;;;;;;22.23;49.83;99589.31;5111754;28;20074;-76
2021/08/20 05:10:39;;;;;;;9.68;7.15;;;;;;;22.48;49.83;99622.69;5093332;28;20027;-76
2021/08/20 05:13:06;;;;;;;8.35;6.82;;;;;;;22.41;49.98;99597.06;5111787;28;20460;-75
2021/08/20 05:15:31;;;;;;;10.98;6.50;;;;;;;22.63;49.86;99630.09;5111565;28;20035;-75
2021/08/20 05:17:57;;;;;;;10.48;7.00;;;;;;;22.65;49.84;99630.66;5111694;28;20020;-75
2021/08/20 05:20:23;;;;;;;8.70;7.80;;;;;;;22.37;49.77;99575.22;5111607;28;20069;-75
2021/08/20 05:22:54;;;;;;;9.15;7.97;;;;;;;22.74;49.68;99629.13;5111498;28;20051;-74
2021/08/20 05:25:21;;;;;;;9.63;7.05;;;;;;;22.79;49.75;99629.16;5111293;28;20031;-75
2021/08/20 05:27:46;;;;;;;9.68;7.00;;;;;;;22.70;49.70;99608.34;5111325;28;20027;-75
2021/08/20 05:30:13;;;;;;;11.68;7.50;;;;;;;22.59;49.71;99580.53;5111497;28;20438;-75
2021/08/20 05:32:39;;;;;;;11.75;7.75;;;;;;;22.72;49.60;99588.19;5093301;28;20035;-75
2021/08/20 05:35:05;;;;;;;10.65;8.00;;;;;;;23.02;49.49;99621.84;5111357;28;20031;-75
2021/08/20 05:37:31;;;;;;;16.20;8.73;;;;;;;23.04;49.53;99619.72;5111111;28;20073;-75
2021/08/20 05:39:56;;;;;;;12.15;8.68;;;;;;;23.13;49.32;99629.78;5111274;28;20023;-75
2021/08/20 05:42:22;;;;;;;13.80;9.32;;;;;;;23.23;49.18;99628.22;5096030;28;20030;-77
2021/08/20 05:44:47;;;;;;;13.57;9.02;;;;;;;23.32;49.12;99629.38;5089311;28;20020;-75
2021/08/20 05:47:13;;;;;;;11.40;8.35;;;;;;;23.25;49.10;99604.53;5089434;28;20061;-75
2021/08/20 05:49:38;;;;;;;13.80;8.88;;;;;;;23.42;49.01;99630.25;5090718;28;20024;-75
2021/08/20 05:52:04;;;;;;;13.65;10.60;;;;;;;23.39;49.17;99611.09;5090670;28;20489;-75
2021/08/20 05:54:29;;;;;;;11.15;9.23;;;;;;;23.20;48.86;99574.88;5090716;28;20107;-75
2021/08/20 05:56:55;;;;;;;12.45;9.60;;;;;;;23.35;48.99;99591.13;5090550;28;20497;-75
2021/08/20 05:59:20;;;;;;;14.98;10.43;;;;;;;23.51;48.85;99610.88;5090568;28;20055;-75
2021/08/20 06:01:45;;;;;;;13.68;9.25;;;;;;;23.67;48.70;99631.50;5091888;28;20028;-75
2021/08/20 06:04:11;;;;;;;13.05;9.45;;;;;;;23.55;48.72;99593.16;5089786;28;20078;-76
2021/08/20 06:06:38;;;;;;;12.50;9.27;;;;;;;23.61;48.63;99602.88;5091020;28;20412;-75
2021/08/20 06:09:04;;;;;;;14.90;9.85;;;;;;;23.62;48.47;99583.75;5094302;28;20019;-74
2021/08/20 06:11:29;;;;;;;17.58;11.23;;;;;;;23.84;48.35;99602.47;5093287;28;20511;-76
2021/08/20 06:13:55;;;;;;;19.67;13.80;;;;;;;23.80;48.22;99600.56;5093045;28;20020;-73
2021/08/20 06:16:20;;;;;;;14.05;9.52;;;;;;;24.16;48.01;99639.28;5088388;28;20028;-75
2021/08/20 06:18:46;;;;;;;14.10;10.45;;;;;;;23.93;47.94;99600.09;5085816;28;20031;-75
2021/08/20 06:21:12;;;;;;;13.10;9.32;;;;;;;24.01;47.66;99600.38;5094108;28;20069;-74
2021/08/20 06:23:37;;;;;;;13.60;8.85;;;;;;;24.07;47.53;99590.44;5094053;28;20016;-75
2021/08/20 06:26:03;;;;;;;13.35;8.82;;;;;;;24.40;47.72;99635.88;5092966;28;20552;-75
2021/08/20 06:28:28;;;;;;;14.73;7.95;;;;;;;24.30;47.32;99616.16;5093709;28;20023;-75
2021/08/20 06:30:54;;;;;;;13.32;8.38;;;;;;;24.32;47.23;99616.69;5092925;28;20493;-75
2021/08/20 06:33:19;;;;;;;16.92;8.77;;;;;;;24.55;47.20;99637.00;5091965;28;20027;-72
2021/08/20 06:35:44;;;;;;;12.48;7.68;;;;;;;24.65;47.20;99639.72;5103116;28;20025;-74
2021/08/20 06:38:10;;;;;;;9.38;7.60;;;;;;;24.56;47.31;99625.94;5081831;28;20034;-74
2021/08/20 06:40:36;;;;;;;12.65;7.40;;;;;;;24.85;47.57;99639.75;5075165;28;20499;-73
2021/08/20 06:43:02;;;;;;;9.63;7.95;;;;;;;24.50;47.22;99581.09;5093526;28;20020;-75
2021/08/20 06:45:27;;;;;;;14.32;8.20;;;;;;;24.99;46.67;99643.56;5093082;28;20098;-75
2021/08/20 06:47:53;;;;;;;9.43;7.15;;;;;;;25.01;46.95;99640.59;5075192;28;20103;-75
2021/08/20 06:50:19;;;;;;;11.35;6.40;;;;;;;25.12;47.05;99649.50;5075155;28;20020;-75
2021/08/20 06:52:44;;;;;;;7.95;6.55;;;;;;;25.19;46.70;99648.16;5093100;28;20133;-74
2021/08/20 06:55:10;;;;;;;11.75;6.78;;;;;;;25.09;46.59;99617.63;5093270;28;20023;-75
2021/08/20 06:57:35;;;;;;;10.07;6.63;;;;;;;25.30;45.84;99625.47;5092938;28;20024;-75
2021/08/20 07:00:03;;;;;;;10.38;9.30;;;;;;;25.26;45.67;99612.72;5093022;28;20526;-74
2021/08/20 07:02:28;;;;;;;10.70;6.82;;;;;;;25.63;45.27;99644.84;5093074;28;20016;-74
2021/08/20 07:04:53;;;;;;;12.95;6.53;;;;;;;25.43;45.04;99612.47;5094834;28;20023;-75
2021/08/20 07:07:19;;;;;;;10.40;6.05;;;;;;;25.64;45.03;99639.19;5091900;28;20401;-75
2021/08/20 07:09:44;;;;;;;8.05;5.97;;;;;;;25.64;44.95;99639.19;5092745;28;20054;-75
2021/08/20 07:12:10;;;;;;;12.05;6.47;;;;;;;25.60;44.50;99611.06;5092826;28;20103;-74
2021/08/20 07:14:35;;;;;;;6.70;6.07;;;;;;;25.67;44.03;99610.81;5092371;28;20508;-75
2021/08/20 07:17:00;;;;;;;9.88;4.75;;;;;;;25.80;43.47;99612.09;5073106;28;20420;-75
2021/08/20 07:19:26;;;;;;;7.18;5.15;;;;;;;26.06;42.55;99651.53;5093928;28;20028;-74
2021/08/20 07:21:51;;;;;;;5.00;4.30;;;;;;;25.43;42.09;99548.41;5089121;28;20194;-75
2021/08/20 07:24:17;;;;;;;5.82;5.03;;;;;;;25.89;41.86;99610.44;5088981;28;20544;-76
2021/08/20 07:26:42;;;;;;;6.00;3.90;;;;;;;26.04;41.48;99621.25;5090238;28;20560;-75
2021/08/20 07:29:07;;;;;;;4.10;3.10;;;;;;;26.32;41.19;99646.00;5088433;28;21982;-76
2021/08/20 07:31:35;;;;;;;5.90;4.80;;;;;;;26.15;40.88;99617.38;5090241;28;20118;-72
2021/08/20 07:34:01;;;;;;;7.97;5.22;;;;;;;26.35;40.60;99648.19;5089307;28;20515;-74
2021/08/20 07:36:26;;;;;;;4.82;4.05;;;;;;;26.12;40.52;99609.03;5089758;28;20032;-74
2021/08/20 07:38:52;;;;;;;7.25;5.78;;;;;;;26.42;39.93;99645.97;5096581;28;20028;-75
2021/08/20 07:41:17;;;;;;;4.15;3.58;;;;;;;26.47;39.12;99643.22;5090871;28;20026;-74
2021/08/20 07:43:43;;;;;;;4.20;3.80;;;;;;;26.54;39.04;99649.16;5096470;28;20027;-75
2021/08/20 07:46:09;;;;;;;7.80;6.20;;;;;;;26.63;38.56;99650.16;5086515;28;20086;-73
2021/08/20 07:48:34;;;;;;;6.90;4.20;;;;;;;26.38;38.61;99601.59;5086722;28;20020;-76
2021/08/20 07:51:00;;;;;;;6.45;5.10;;;;;;;26.48;39.03;99602.34;5089196;28;20408;-76
2021/08/20 07:53:25;;;;;;;5.60;4.70;;;;;;;26.82;39.24;99656.56;5096700;28;20035;-73
2021/08/20 07:55:51;;;;;;;4.57;4.13;;;;;;;26.63;38.78;99608.75;5092372;28;20028;-74
2021/08/20 07:58:16;;;;;;;5.15;3.90;;;;;;;26.85;38.48;99644.34;5091797;28;20050;-75
2021/08/20 08:00:43;;;;;;;5.80;4.28;;;;;;;26.67;38.24;99620.63;5090873;28;20024;-75
2021/08/20 08:03:08;;;;;;;6.05;4.10;;;;;;;26.65;38.64;99601.13;5072049;28;20043;-75
2021/08/20 08:05:33;;;;;;;4.95;4.22;;;;;;;27.08;38.20;99632.00;5087582;28;20078;-75
2021/08/20 08:07:59;;;;;;;8.75;5.60;;;;;;;27.20;37.87;99644.09;5090704;28;20020;-75
2021/08/20 08:10:25;;;;;;;5.28;4.30;;;;;;;27.25;37.66;99637.81;5090304;28;20027;-73
2021/08/20 08:12:51;;;;;;;10.50;6.57;;;;;;;27.38;37.86;99645.28;5089821;28;20048;-76
2021/08/20 08:15:16;;;;;;;7.72;4.57;;;;;;;27.46;37.46;99641.94;5090196;28;20500;-75
2021/08/20 08:17:42;;;;;;;8.88;5.35;;;;;;;27.51;37.30;99641.09;5088947;28;20057;-73
2021/08/20 08:20:13;;;;;;;5.97;4.68;;;;;;;27.60;37.21;99644.00;5089367;28;20024;-76
2021/08/20 08:22:39;;;;;;;16.35;12.07;;;;;;;27.36;37.16;99595.13;5089439;28;20028;-75
2021/08/20 08:25:05;;;;;;;6.70;4.63;;;;;;;27.84;36.50;99647.56;5090382;28;20202;-75
2021/08/20 08:27:30;;;;;;;5.03;4.50;;;;;;;27.62;36.17;99626.38;5091577;28;20024;-76
2021/08/20 08:29:56;;;;;;;9.40;7.25;;;;;;;27.98;36.00;99644.94;5066518;28;20411;-75
2021/08/20 08:32:21;;;;;;;3.90;3.55;;;;;;;27.92;35.55;99625.19;5087995;28;20023;-75
2021/08/20 08:34:46;;;;;;;4.82;3.80;;;;;;;28.22;35.37;99643.00;5090571;28;20552;-75
2021/08/20 08:37:12;;;;;;;4.82;4.22;;;;;;;28.32;35.12;99652.97;5093819;28;20080;-75
2021/08/20 08:39:38;;;;;;;6.00;4.60;;;;;;;28.09;34.89;99608.44;5096520;28;20031;-75
2021/08/20 08:42:05;;;;;;;4.38;3.78;;;;;;;28.13;35.11;99618.41;5088022;28;20140;-76
2021/08/20 08:44:31;;;;;;;5.10;4.20;;;;;;;28.30;34.79;99647.03;5089875;28;20032;-72
2021/08/20 08:46:59;;;;;;;3.75;3.17;;;;;;;28.10;34.71;99604.63;5090608;28;20065;-73
2021/08/20 08:49:24;;;;;;;5.55;3.58;;;;;;;28.28;33.80;99594.94;5111404;28;20102;-75
2021/08/20 08:51:50;;;;;;;3.33;2.78;;;;;;;28.67;33.60;99640.78;5090398;28;20127;-75
2021/08/20 08:54:16;;;;;;;6.82;4.68;;;;;;;28.81;33.97;99644.38;5090997;28;20050;-76
2021/08/20 08:56:46;;;;;;;7.72;3.78;;;;;;;28.99;33.24;99637.34;5091275;28;20027;-76
2021/08/20 08:59:12;;;;;;;5.78;3.70;;;;;;;29.06;33.22;99645.94;5091090;28;20047;-79
2021/08/20 09:01:38;;;;;;;5.18;3.60;;;;;;;29.18;32.93;99634.59;5090336;28;20457;-79
2021/08/20 09:04:12;;;;;;;5.00;4.05;;;;;;;29.28;33.16;99628.97;5089608;28;20024;-78
2021/08/20 09:06:38;;;;;;;6.63;4.35;;;;;;;29.36;32.44;99639.97;5104777;28;20035;-77
2021/08/20 09:09:05;;;;;;;5.10;4.60;;;;;;;29.21;32.35;99604.88;5086372;28;20416;-76
2021/08/20 09:11:31;;;;;;;5.03;3.58;;;;;;;29.55;32.40;99633.66;5082777;28;20020;-79
2021/08/20 09:13:57;;;;;;;3.95;3.55;;;;;;;29.63;32.14;99635.69;5101670;28;20031;-78
2021/08/20 09:16:22;;;;;;;5.07;4.57;;;;;;;29.70;32.35;99620.56;5097326;28;20055;-77
2021/08/20 09:19:09;;;;;;;6.65;3.78;;;;;;;29.73;31.65;99584.63;5094419;28;20107;-78
2021/08/20 09:21:34;;;;;;;3.42;3.10;;;;;;;29.78;31.14;99578.25;5089342;28;20389;-78
2021/08/20 09:23:59;;;;;;;6.93;3.92;;;;;;;30.11;31.50;99627.16;5088767;28;20038;-76
2021/08/20 09:26:25;;;;;;;4.30;3.92;;;;;;;29.92;31.61;99579.03;5089632;28;20509;-74
2021/08/20 09:28:50;;;;;;;5.93;5.30;;;;;;;30.18;31.32;99583.97;5088765;28;20032;-73
2021/08/20 09:31:16;;;;;;;6.35;4.25;;;;;;;30.60;30.96;99621.72;5081680;28;20063;-73
2021/08/20 09:33:49;;;;;;;8.48;7.68;;;;;;;30.73;30.30;99621.97;5090118;28;20026;-74
2021/08/20 09:36:19;;;;;;;4.82;4.32;;;;;;;30.94;30.70;99626.63;5089391;28;20028;-75
2021/08/20 09:38:49;;;;;;;4.40;3.85;;;;;;;31.17;29.80;99621.16;5090345;28;20024;-75
2021/08/20 09:41:17;;;;;;;5.20;4.60;;;;;;;31.11;29.59;99589.66;5072337;28;20028;-73
2021/08/20 09:43:46;;;;;;;7.22;6.07;;;;;;;30.99;29.31;99563.78;5074390;28;20040;-76
2021/08/20 09:46:18;;;;;;;6.57;5.60;;;;;;;31.09;29.01;99570.06;5096371;28;20417;-74
2021/08/20 09:48:52;;;;;;;3.78;3.47;;;;;;;31.43;28.84;99605.75;5107306;27;20020;-74
2021/08/20 09:51:46;;;;;;;4.53;3.50;;;;;;;31.77;28.79;99610.56;5089990;28;21412;-74
2021/08/20 09:54:14;;;;;;;4.35;3.95;;;;;;;31.99;28.02;99606.16;5097244;28;20142;-76
2021/08/20 09:56:40;;;;;;;4.72;4.30;;;;;;;32.11;28.04;99593.47;5113418;28;20027;-74
2021/08/20 09:59:08;;;;;;;4.50;4.10;;;;;;;32.24;27.78;99594.47;5092738;28;20120;-75
2021/08/20 10:01:35;;;;;;;3.30;3.00;;;;;;;32.49;27.10;99590.16;5109499;28;20055;-74
2021/08/20 10:04:04;;;;;;;3.13;2.83;;;;;;;32.57;26.96;99594.81;5102970;28;20033;-72
2021/08/20 10:06:37;;;;;;;3.53;3.20;;;;;;;32.56;27.08;99595.94;5110708;28;20023;-76
2021/08/20 10:09:06;;;;;;;3.72;2.78;;;;;;;32.66;26.80;99595.59;5096146;28;20483;-74
2021/08/20 10:11:34;;;;;;;4.00;3.60;;;;;;;32.88;26.43;99588.38;5094458;28;20102;-73
2021/08/20 10:14:02;;;;;;;6.43;5.75;;;;;;;32.98;25.94;99588.84;5104056;28;20024;-75
2021/08/20 10:16:30;;;;;;;6.22;4.80;;;;;;;32.94;25.49;99565.22;5094573;28;20561;-73
2021/08/20 10:18:57;;;;;;;6.05;5.45;;;;;;;32.70;25.81;99536.44;5108841;28;20020;-74
2021/08/20 10:21:22;;;;;;;3.75;3.08;;;;;;;33.09;25.44;99556.47;5111275;28;20019;-72
2021/08/20 10:23:48;;;;;;;5.28;3.20;;;;;;;33.17;25.37;99531.00;5112919;28;20077;-74
2021/08/20 10:26:15;;;;;;;6.82;4.25;;;;;;;33.58;24.89;99551.47;5114042;28;20038;-75
2021/08/20 10:28:41;;;;;;;6.47;3.17;;;;;;;33.95;24.31;99571.75;5114001;28;20082;-75
2021/08/20 10:31:10;;;;;;;3.97;2.90;;;;;;;33.82;23.85;99548.94;5093297;27;20518;-76
2021/08/20 10:33:37;;;;;;;3.65;2.97;;;;;;;34.14;23.32;99563.06;5121876;27;20500;-72
2021/08/20 10:36:03;;;;;;;3.72;3.35;;;;;;;34.33;24.02;99577.16;5112351;28;20098;-75
2021/08/20 10:38:38;;;;;;;8.60;3.45;;;;;;;34.32;23.71;99583.75;5110266;28;20024;-74
2021/08/20 10:41:19;;;;;;;4.03;3.08;;;;;;;34.43;23.49;99574.00;5101537;28;20453;-76
2021/08/20 10:43:53;;;;;;;3.78;2.63;;;;;;;34.54;23.40;99568.91;5104230;28;21155;-76
2021/08/20 10:46:31;;;;;;;3.85;2.90;;;;;;;34.70;22.58;99564.38;5102458;28;20077;-75
2021/08/20 10:49:12;;;;;;;3.03;2.63;;;;;;;34.83;22.08;99576.22;5112905;28;20063;-75
2021/08/20 10:51:49;;;;;;;2.92;2.63;;;;;;;34.83;22.52;99568.81;5112532;28;20035;-75
2021/08/20 10:54:36;;;;;;;5.13;3.65;;;;;;;34.95;22.28;99559.81;5113636;28;20031;-74
2021/08/20 10:57:06;;;;;;;3.60;2.50;;;;;;;35.13;22.10;99558.50;5084228;28;20039;-75
2021/08/20 10:59:38;;;;;;;4.38;3.63;;;;;;;35.38;22.35;99555.78;5113275;28;20444;-74
2021/08/20 11:02:18;;;;;;;2.83;2.30;;;;;;;35.44;21.41;99551.66;5103240;28;20066;-74
2021/08/20 11:04:57;;;;;;;2.78;2.50;;;;;;;35.56;21.43;99546.19;5108636;28;20462;-73
2021/08/20 11:07:37;;;;;;;3.30;2.83;;;;;;;35.61;21.29;99552.22;5112477;28;20478;-73
2021/08/20 11:10:09;;;;;;;7.55;6.85;;;;;;;35.70;20.91;99551.34;5112268;28;20036;-75
2021/08/20 11:12:49;;;;;;;5.30;4.80;;;;;;;35.67;20.01;99530.81;5111983;28;20031;-74
2021/08/20 11:15:20;;;;;;;4.25;3.47;;;;;;;35.81;20.87;99541.50;5109000;28;20027;-74
2021/08/20 11:17:50;;;;;;;3.83;3.42;;;;;;;35.65;20.45;99539.41;5111648;28;20039;-76
2021/08/20 11:20:39;;;;;;;3.50;3.10;;;;;;;35.49;20.44;99538.50;5111201;28;20035;-75
2021/08/20 11:23:07;;;;;;;5.47;2.70;;;;;;;35.59;20.41;99529.00;5110313;28;20039;-78
2021/08/20 11:25:50;;;;;;;3.05;2.67;;;;;;;35.62;20.24;99511.84;5111905;28;20104;-78
2021/08/20 11:28:26;;;;;;;3.85;2.70;;;;;;;35.65;20.13;99489.16;5109098;28;20063;-77
2021/08/20 11:31:06;;;;;;;19.55;16.88;;;;;;;35.70;20.53;99493.66;5109452;28;20020;-80